createdAt,value
2017-05-23T00:00:51.220Z,8.60
2017-05-23T00:03:20.143Z,7.77
2017-05-23T00:05:49.090Z,8.13
2017-05-23T00:08:18.040Z,8.15
2017-05-23T00:10:46.976Z,7.83
2017-05-23T00:13:15.940Z,8.48
2017-05-23T00:15:44.866Z,9.23
2017-05-23T00:18:13.794Z,8.17
2017-05-23T00:20:42.742Z,8.32
2017-05-23T00:23:11.661Z,8.28
2017-05-23T00:25:40.600Z,8.45
2017-05-23T00:28:09.549Z,8.23
2017-05-23T00:30:38.475Z,7.82
2017-05-23T00:33:07.426Z,8.48
2017-05-23T00:35:36.397Z,8.12
2017-05-23T00:38:05.340Z,7.95
2017-05-23T00:40:34.259Z,7.82
2017-05-23T00:43:03.235Z,8.62
2017-05-23T00:45:32.165Z,8.80
2017-05-23T00:48:01.107Z,8.07
2017-05-23T00:50:30.050Z,8.02
2017-05-23T00:52:58.983Z,8.48
2017-05-23T00:55:27.961Z,8.07
2017-05-23T00:57:56.934Z,9.38
2017-05-23T01:00:25.859Z,8.40
2017-05-23T01:02:54.779Z,8.67
2017-05-23T01:05:23.750Z,8.08
2017-05-23T01:07:52.683Z,9.18
2017-05-23T01:10:21.616Z,8.27
2017-05-23T01:12:50.588Z,8.42
2017-05-23T01:15:19.525Z,8.42
2017-05-23T01:17:48.443Z,8.38
2017-05-23T01:20:17.421Z,8.93
2017-05-23T01:22:46.365Z,8.75
2017-05-23T01:25:15.305Z,9.03
2017-05-23T01:27:44.251Z,9.33
2017-05-23T01:30:13.192Z,8.38
2017-05-23T01:32:42.123Z,10.00
2017-05-23T01:35:11.092Z,9.43
2017-05-23T01:37:40.034Z,8.50
2017-05-23T01:40:08.953Z,9.00
2017-05-23T01:42:37.904Z,9.07
2017-05-23T01:45:06.834Z,9.57
2017-05-23T01:47:35.759Z,9.05
2017-05-23T01:50:04.725Z,9.33
2017-05-23T01:52:33.662Z,9.55
2017-05-23T01:55:02.608Z,9.97
2017-05-23T01:57:31.562Z,9.68
2017-05-23T02:00:00.501Z,9.73
2017-05-23T02:02:29.445Z,10.38
2017-05-23T02:04:58.399Z,9.75
2017-05-23T02:07:27.350Z,13.05
2017-05-23T02:09:56.335Z,12.32
2017-05-23T02:12:25.318Z,11.73
2017-05-23T02:14:54.271Z,10.52
2017-05-23T02:17:23.202Z,11.28
2017-05-23T02:19:52.164Z,11.25
2017-05-23T02:22:21.111Z,12.10
2017-05-23T02:24:50.057Z,10.73
2017-05-23T02:27:19.013Z,10.08
2017-05-23T02:29:47.961Z,10.60
2017-05-23T02:32:16.881Z,9.60
2017-05-23T02:34:45.853Z,10.42
2017-05-23T02:37:14.784Z,9.95
2017-05-23T02:39:43.736Z,9.68
2017-05-23T02:42:12.713Z,10.63
2017-05-23T02:44:41.659Z,10.45
2017-05-23T02:47:10.600Z,9.88
2017-05-23T02:49:39.576Z,10.58
2017-05-23T02:52:08.499Z,11.05
2017-05-23T02:54:37.431Z,11.23
2017-05-23T02:57:06.397Z,11.58
2017-05-23T02:59:35.330Z,11.08
2017-05-23T03:02:04.263Z,10.30
2017-05-23T03:04:33.217Z,10.68
2017-05-23T03:07:02.168Z,12.85
2017-05-23T03:09:31.116Z,11.42
2017-05-23T03:12:00.065Z,11.48
2017-05-23T03:14:29.937Z,11.23
2017-05-23T03:16:58.883Z,9.55
2017-05-23T03:19:27.863Z,11.03
2017-05-23T03:21:56.792Z,10.78
2017-05-23T03:24:25.750Z,11.15
2017-05-23T03:26:54.724Z,12.00
2017-05-23T03:29:23.664Z,10.85
2017-05-23T03:31:52.598Z,10.40
2017-05-23T03:34:21.574Z,11.10
2017-05-23T03:36:50.521Z,11.33
2017-05-23T03:39:19.485Z,12.20
2017-05-23T03:41:48.434Z,11.02
2017-05-23T03:44:17.359Z,10.35
2017-05-23T03:46:46.288Z,11.33
2017-05-23T03:49:15.260Z,10.32
2017-05-23T03:51:44.205Z,10.72
2017-05-23T03:54:13.155Z,10.40
2017-05-23T03:56:42.144Z,10.52
2017-05-23T03:59:11.074Z,10.62
2017-05-23T04:01:40.010Z,11.32
2017-05-23T04:04:08.965Z,11.62
2017-05-23T04:06:37.895Z,11.40
2017-05-23T04:09:06.840Z,11.23
2017-05-23T04:11:35.838Z,11.08
2017-05-23T04:14:04.785Z,12.05
2017-05-23T04:16:33.733Z,10.95
2017-05-23T04:19:02.705Z,10.63
2017-05-23T04:21:31.633Z,10.15
2017-05-23T04:24:00.554Z,10.37
2017-05-23T04:26:29.529Z,11.08
2017-05-23T04:28:58.458Z,10.70
2017-05-23T04:31:27.385Z,11.37
2017-05-23T04:33:56.347Z,10.52
2017-05-23T04:36:25.278Z,10.75
2017-05-23T04:38:54.232Z,11.30
2017-05-23T04:41:23.184Z,10.88
2017-05-23T04:43:52.117Z,10.60
2017-05-23T04:46:21.042Z,9.88
2017-05-23T04:48:50.001Z,10.62
2017-05-23T04:51:18.950Z,9.80
2017-05-23T04:53:47.874Z,9.90
2017-05-23T04:56:16.898Z,10.02
2017-05-23T04:58:45.821Z,10.32
2017-05-23T05:01:14.769Z,10.32
2017-05-23T05:03:43.741Z,9.77
2017-05-23T05:06:14.217Z,9.35
2017-05-23T05:08:43.151Z,11.07
2017-05-23T05:11:12.125Z,9.23
2017-05-23T05:13:41.074Z,9.12
2017-05-23T05:16:10.003Z,8.68
2017-05-23T05:18:38.957Z,8.50
2017-05-23T05:21:07.896Z,9.20
2017-05-23T05:23:36.814Z,9.18
2017-05-23T05:26:05.774Z,8.80
2017-05-23T05:28:34.695Z,8.68
2017-05-23T05:31:03.660Z,9.28
2017-05-23T05:33:32.613Z,8.52
2017-05-23T05:36:01.538Z,8.85
2017-05-23T05:38:30.476Z,8.60
2017-05-23T05:40:59.435Z,9.48
2017-05-23T05:43:28.371Z,8.63
2017-05-23T05:45:57.300Z,8.72
2017-05-23T05:48:26.285Z,9.70
2017-05-23T05:50:55.232Z,8.67
2017-05-23T05:53:24.174Z,8.72
2017-05-23T05:55:53.137Z,8.70
2017-05-23T05:58:22.075Z,8.25
2017-05-23T06:00:51.013Z,8.42
2017-05-23T06:03:19.986Z,8.90
2017-05-23T06:05:48.925Z,7.87
2017-05-23T06:08:17.873Z,8.08
2017-05-23T06:10:46.853Z,8.35
2017-05-23T06:13:21.234Z,7.78
2017-05-23T06:15:50.200Z,8.13
2017-05-23T06:18:19.146Z,6.97
2017-05-23T06:20:48.069Z,7.83
2017-05-23T06:23:17.327Z,7.70
2017-05-23T06:25:46.781Z,8.32
2017-05-23T06:28:15.725Z,7.22
2017-05-23T06:30:44.697Z,7.37
2017-05-23T06:33:13.637Z,7.65
2017-05-23T06:35:42.611Z,8.42
2017-05-23T06:38:11.600Z,7.82
2017-05-23T06:40:40.542Z,7.15
2017-05-23T06:43:09.578Z,7.27
2017-05-23T06:45:38.566Z,7.13
2017-05-23T06:48:07.511Z,7.80
2017-05-23T06:50:36.430Z,7.68
2017-05-23T06:53:05.525Z,8.43
2017-05-23T06:55:34.487Z,8.03
2017-05-23T06:58:03.561Z,7.83
2017-05-23T07:00:32.569Z,7.22
2017-05-23T07:03:01.568Z,7.18
2017-05-23T07:05:30.485Z,7.73
2017-05-23T07:07:59.462Z,7.32
2017-05-23T07:10:28.402Z,6.90
2017-05-23T07:12:57.325Z,6.43
2017-05-23T07:15:26.297Z,6.52
2017-05-23T07:17:55.220Z,7.17
2017-05-23T07:20:24.168Z,6.53
2017-05-23T07:22:53.145Z,6.80
2017-05-23T07:25:22.099Z,6.57
2017-05-23T07:27:51.037Z,6.25
2017-05-23T07:30:20.023Z,7.08
2017-05-23T07:32:48.965Z,6.95
2017-05-23T07:35:17.898Z,6.57
2017-05-23T07:37:46.871Z,6.50
2017-05-23T07:40:15.794Z,6.55
2017-05-23T07:42:44.742Z,7.00
2017-05-23T07:45:13.719Z,7.20
2017-05-23T07:47:42.662Z,6.42
2017-05-23T07:50:11.601Z,6.05
2017-05-23T07:52:40.550Z,7.38
2017-05-23T07:55:09.474Z,6.20
2017-05-23T07:57:38.395Z,7.28
2017-05-23T08:00:07.379Z,6.27
2017-05-23T08:02:36.302Z,6.47
2017-05-23T08:05:05.253Z,5.95
2017-05-23T08:07:34.233Z,5.67
2017-05-23T08:10:03.153Z,4.92
2017-05-23T08:12:32.097Z,5.78
2017-05-23T08:15:01.064Z,5.08
2017-05-23T08:17:29.986Z,5.30
2017-05-23T08:19:58.934Z,5.06
2017-05-23T08:22:27.879Z,4.52
2017-05-23T08:24:56.815Z,5.60
2017-05-23T08:27:25.765Z,5.30
2017-05-23T08:29:54.731Z,5.24
2017-05-23T08:32:23.658Z,4.96
2017-05-23T08:34:52.585Z,4.76
2017-05-23T08:37:21.546Z,4.56
2017-05-23T08:39:50.487Z,4.94
2017-05-23T08:42:19.431Z,5.86
2017-05-23T08:44:48.406Z,4.80
2017-05-23T08:47:17.345Z,3.90
2017-05-23T08:49:46.295Z,5.08
2017-05-23T08:52:15.262Z,5.66
2017-05-23T08:54:44.214Z,4.70
2017-05-23T08:57:13.135Z,5.00
2017-05-23T08:59:42.101Z,5.00
2017-05-23T09:02:11.045Z,4.90
2017-05-23T09:04:39.990Z,5.28
2017-05-23T09:07:08.938Z,5.62
2017-05-23T09:09:37.854Z,4.42
2017-05-23T09:12:06.777Z,5.54
2017-05-23T09:14:35.751Z,5.16
2017-05-23T09:17:04.679Z,5.56
2017-05-23T09:19:33.606Z,4.78
2017-05-23T09:22:02.584Z,6.08
2017-05-23T09:24:31.542Z,5.20
2017-05-23T09:27:06.163Z,6.30
2017-05-23T09:29:35.085Z,5.50
2017-05-23T09:32:04.027Z,5.40
2017-05-23T09:34:33.009Z,4.96
2017-05-23T09:37:01.948Z,4.68
2017-05-23T09:39:30.912Z,4.32
2017-05-23T09:41:59.878Z,5.26
2017-05-23T09:44:28.810Z,5.04
2017-05-23T09:46:57.739Z,5.64
2017-05-23T09:49:26.715Z,4.44
2017-05-23T09:51:55.667Z,4.70
2017-05-23T09:54:24.591Z,4.86
2017-05-23T09:56:53.548Z,4.30
2017-05-23T09:59:22.467Z,3.76
2017-05-23T10:01:51.390Z,4.84
2017-05-23T10:04:20.351Z,4.60
2017-05-23T10:06:49.278Z,4.34
2017-05-23T10:09:18.207Z,4.12
2017-05-23T10:11:47.176Z,5.24
2017-05-23T10:14:16.098Z,4.80
2017-05-23T10:16:45.053Z,4.66
2017-05-23T10:19:14.003Z,4.54
2017-05-23T10:21:42.942Z,4.60
2017-05-23T10:24:11.885Z,5.42
2017-05-23T10:26:40.875Z,4.70
2017-05-23T10:29:09.817Z,5.22
2017-05-23T10:31:38.756Z,4.76
2017-05-23T10:34:07.715Z,4.74
2017-05-23T10:36:36.665Z,5.00
2017-05-23T10:39:05.600Z,5.22
2017-05-23T10:41:34.547Z,4.64
2017-05-23T10:44:03.466Z,3.98
2017-05-23T10:46:32.390Z,4.38
2017-05-23T10:49:01.334Z,4.42
2017-05-23T10:51:30.275Z,4.78
2017-05-23T10:53:59.198Z,4.42
2017-05-23T10:56:28.294Z,4.60
2017-05-23T10:58:57.220Z,4.26
2017-05-23T11:01:26.174Z,4.84
2017-05-23T11:03:55.145Z,5.22
2017-05-23T11:06:24.070Z,4.88
2017-05-23T11:08:52.994Z,4.60
2017-05-23T11:11:21.945Z,4.32
2017-05-23T11:13:50.870Z,4.12
2017-05-23T11:16:19.814Z,4.22
2017-05-23T11:18:49.854Z,5.00
2017-05-23T11:21:18.805Z,4.78
2017-05-23T11:23:47.726Z,4.10
2017-05-23T11:26:16.727Z,5.12
2017-05-23T11:28:45.658Z,5.16
2017-05-23T11:31:14.599Z,4.90
2017-05-23T11:33:43.583Z,4.34
2017-05-23T11:36:12.521Z,4.70
2017-05-23T11:38:41.446Z,4.98
2017-05-23T11:41:10.407Z,4.10
2017-05-23T11:43:39.326Z,5.00
2017-05-23T11:46:08.270Z,4.80
2017-05-23T11:48:37.222Z,4.44
2017-05-23T11:51:06.147Z,5.06
2017-05-23T11:53:35.071Z,5.70
2017-05-23T11:56:04.035Z,5.16
2017-05-23T11:58:32.955Z,5.32
2017-05-23T12:01:01.903Z,5.44
2017-05-23T12:03:30.892Z,4.90
2017-05-23T12:05:59.818Z,6.12
2017-05-23T12:08:28.733Z,5.24
2017-05-23T12:10:57.709Z,5.46
2017-05-23T12:13:26.652Z,5.90
2017-05-23T12:15:55.595Z,5.86
2017-05-23T12:18:24.568Z,5.68
2017-05-23T12:20:53.500Z,5.92
2017-05-23T12:23:22.451Z,5.68
2017-05-23T12:25:51.424Z,6.64
2017-05-23T12:28:20.371Z,6.40
2017-05-23T12:30:49.298Z,6.50
2017-05-23T12:33:18.253Z,7.58
2017-05-23T12:35:47.197Z,7.48
2017-05-23T12:38:16.135Z,7.50
2017-05-23T12:40:45.116Z,8.14
2017-05-23T12:43:14.046Z,7.37
2017-05-23T12:45:42.998Z,7.96
2017-05-23T12:48:11.959Z,8.10
2017-05-23T12:50:40.886Z,7.02
2017-05-23T12:53:09.814Z,6.76
2017-05-23T12:55:38.797Z,6.23
2017-05-23T12:58:07.730Z,5.47
2017-05-23T13:00:36.684Z,5.83
2017-05-23T13:03:05.672Z,4.62
2017-05-23T13:05:34.598Z,4.57
2017-05-23T13:08:03.531Z,4.98
2017-05-23T13:10:32.524Z,4.67
2017-05-23T13:13:01.468Z,4.73
2017-05-23T13:15:30.396Z,4.60
2017-05-23T13:17:59.361Z,4.33
2017-05-23T13:20:28.309Z,5.12
2017-05-23T13:22:57.252Z,4.50
2017-05-23T13:25:26.209Z,5.07
2017-05-23T13:27:55.162Z,6.22
2017-05-23T13:30:24.090Z,4.88
2017-05-23T13:32:53.062Z,5.40
2017-05-23T13:35:22.013Z,9.95
2017-05-23T13:37:50.965Z,18.62
2017-05-23T13:40:19.949Z,24.55
2017-05-23T13:42:48.917Z,26.98
2017-05-23T13:45:17.917Z,31.53
2017-05-23T13:47:46.875Z,32.83
2017-05-23T13:50:15.797Z,34.37
2017-05-23T13:52:44.725Z,34.85
2017-05-23T13:55:13.683Z,35.90
2017-05-23T13:57:42.614Z,38.95
2017-05-23T14:00:11.579Z,38.33
2017-05-23T14:02:40.567Z,39.92
2017-05-23T14:05:09.493Z,33.47
2017-05-23T14:07:38.431Z,35.13
2017-05-23T14:10:07.395Z,33.30
2017-05-23T14:12:36.321Z,26.47
2017-05-23T14:15:05.273Z,22.37
2017-05-23T14:17:34.234Z,22.25
2017-05-23T14:20:03.180Z,18.17
2017-05-23T14:22:32.116Z,15.28
2017-05-23T14:25:01.101Z,13.17
2017-05-23T14:27:30.045Z,13.30
2017-05-23T14:29:58.974Z,13.35
2017-05-23T14:32:27.956Z,13.53
2017-05-23T14:34:56.890Z,12.08
2017-05-23T14:37:25.821Z,12.40
2017-05-23T14:39:55.769Z,11.30
2017-05-23T14:42:24.713Z,11.52
2017-05-23T14:44:53.637Z,11.53
2017-05-23T14:47:22.593Z,10.97
2017-05-23T14:49:51.549Z,10.28
2017-05-23T14:52:20.500Z,9.22
2017-05-23T14:54:49.458Z,8.58
2017-05-23T14:57:18.408Z,9.75
2017-05-23T14:59:47.355Z,8.53
2017-05-23T15:02:16.337Z,9.23
2017-05-23T15:04:45.266Z,8.30
2017-05-23T15:07:14.200Z,8.05
2017-05-23T15:09:43.180Z,9.05
2017-05-23T15:12:12.130Z,8.02
2017-05-23T15:14:41.058Z,8.00
2017-05-23T15:17:10.036Z,10.33
2017-05-23T15:19:38.994Z,11.05
2017-05-23T15:22:07.940Z,11.72
2017-05-23T15:24:36.912Z,12.80
2017-05-23T15:27:05.834Z,12.22
2017-05-23T15:29:34.786Z,12.42
2017-05-23T15:32:03.769Z,11.43
2017-05-23T15:34:32.720Z,14.22
2017-05-23T15:37:01.649Z,15.12
2017-05-23T15:39:30.612Z,15.70
2017-05-23T15:41:59.552Z,15.50
2017-05-23T15:44:28.500Z,16.77
2017-05-23T15:46:57.485Z,16.05
2017-05-23T15:49:26.433Z,14.70
2017-05-23T15:51:55.370Z,14.65
2017-05-23T15:54:24.340Z,15.07
2017-05-23T15:56:53.298Z,14.73
2017-05-23T15:59:22.239Z,12.43
2017-05-23T16:01:51.221Z,14.88
2017-05-23T16:04:20.147Z,13.63
2017-05-23T16:06:49.092Z,15.00
2017-05-23T16:09:18.068Z,16.60
2017-05-23T16:11:47.017Z,15.88
2017-05-23T16:14:15.951Z,13.07
2017-05-23T16:16:44.929Z,13.25
2017-05-23T16:19:13.858Z,12.45
2017-05-23T16:21:42.794Z,12.73
2017-05-23T16:24:11.777Z,12.47
2017-05-23T16:26:40.724Z,14.52
2017-05-23T16:29:09.654Z,14.92
2017-05-23T16:31:38.609Z,14.33
2017-05-23T16:34:07.537Z,13.27
2017-05-23T16:36:36.490Z,13.53
2017-05-23T16:39:05.466Z,12.70
2017-05-23T16:41:34.407Z,11.32
2017-05-23T16:44:03.333Z,13.52
2017-05-23T16:46:32.302Z,12.13
2017-05-23T16:49:01.248Z,11.87
2017-05-23T16:51:30.188Z,11.60
2017-05-23T16:53:59.167Z,11.52
2017-05-23T16:56:28.094Z,11.90
2017-05-23T16:58:57.020Z,12.37
2017-05-23T17:01:26.009Z,11.18
2017-05-23T17:03:54.942Z,11.12
2017-05-23T17:06:23.889Z,8.95
2017-05-23T17:08:52.861Z,9.17
2017-05-23T17:11:21.804Z,8.97
2017-05-23T17:13:50.753Z,9.10
2017-05-23T17:16:19.718Z,8.77
2017-05-23T17:18:48.660Z,8.38
2017-05-23T17:21:17.596Z,8.57
2017-05-23T17:23:46.566Z,9.27
2017-05-23T17:26:15.495Z,8.67
2017-05-23T17:28:44.422Z,8.05
2017-05-23T17:31:13.394Z,9.17
2017-05-23T17:33:42.343Z,8.90
2017-05-23T17:36:11.291Z,9.48
2017-05-23T17:38:40.247Z,7.28
2017-05-23T17:41:09.193Z,8.42
2017-05-23T17:43:38.145Z,9.23
2017-05-23T17:46:07.125Z,7.43
2017-05-23T17:48:36.053Z,7.55
2017-05-23T17:51:04.987Z,6.65
2017-05-23T17:53:33.959Z,6.77
2017-05-23T17:56:02.885Z,6.47
2017-05-23T17:58:31.826Z,6.25
2017-05-23T18:01:00.773Z,5.45
2017-05-23T18:03:29.713Z,6.13
2017-05-23T18:05:58.648Z,5.87
2017-05-23T18:08:27.611Z,6.68
2017-05-23T18:10:56.534Z,6.23
2017-05-23T18:13:25.485Z,5.08
2017-05-23T18:15:54.447Z,5.68
2017-05-23T18:18:23.386Z,5.68
2017-05-23T18:20:52.326Z,6.30
2017-05-23T18:23:21.282Z,4.85
2017-05-23T18:25:50.226Z,5.00
2017-05-23T18:28:19.154Z,6.03
2017-05-23T18:30:48.123Z,9.03
2017-05-23T18:33:17.047Z,7.23
2017-05-23T18:35:45.971Z,5.40
2017-05-23T18:38:14.922Z,5.95
2017-05-23T18:40:43.852Z,4.88
2017-05-23T18:43:12.790Z,4.33
2017-05-23T18:45:41.746Z,4.73
2017-05-23T18:48:10.684Z,3.63
2017-05-23T18:50:39.614Z,5.10
2017-05-23T18:53:08.596Z,4.28
2017-05-23T18:55:37.774Z,8.25
2017-05-23T18:58:06.721Z,5.00
2017-05-23T19:00:35.678Z,3.82
2017-05-23T19:03:04.662Z,3.85
2017-05-23T19:05:33.605Z,3.70
2017-05-23T19:08:02.557Z,4.52
2017-05-23T19:10:31.503Z,4.12
2017-05-23T19:13:00.442Z,3.00
2017-05-23T19:15:29.412Z,4.55
2017-05-23T19:17:58.363Z,3.13
2017-05-23T19:20:27.305Z,4.07
2017-05-23T19:22:56.327Z,4.65
2017-05-23T19:25:25.290Z,3.83
2017-05-23T19:27:54.250Z,3.93
2017-05-23T19:30:23.215Z,3.73
2017-05-23T19:32:52.159Z,3.55
2017-05-23T19:35:21.092Z,4.05
2017-05-23T19:37:50.065Z,3.98
2017-05-23T19:40:18.986Z,3.35
2017-05-23T19:42:47.903Z,3.22
2017-05-23T19:45:16.869Z,3.13
2017-05-23T19:47:45.807Z,3.10
2017-05-23T19:50:14.735Z,3.67
2017-05-23T19:52:43.693Z,2.78
2017-05-23T19:55:12.635Z,3.73
2017-05-23T19:57:41.581Z,3.27
2017-05-23T20:00:10.546Z,3.07
2017-05-23T20:02:39.489Z,3.68
2017-05-23T20:05:08.428Z,4.67
2017-05-23T20:07:37.398Z,4.45
2017-05-23T20:10:06.326Z,5.47
2017-05-23T20:12:35.273Z,5.78
2017-05-23T20:15:04.235Z,6.27
2017-05-23T20:17:33.157Z,3.13
2017-05-23T20:20:02.094Z,5.03
2017-05-23T20:22:31.050Z,3.40
2017-05-23T20:24:59.983Z,3.62
2017-05-23T20:27:28.930Z,3.75
2017-05-23T20:29:57.912Z,3.03
2017-05-23T20:32:26.853Z,3.10
2017-05-23T20:34:55.813Z,3.08
2017-05-23T20:37:24.776Z,3.00
2017-05-23T20:39:53.707Z,2.28
2017-05-23T20:42:22.654Z,3.30
2017-05-23T20:44:51.616Z,2.87
2017-05-23T20:47:20.557Z,4.08
2017-05-23T20:49:49.483Z,3.53
2017-05-23T20:52:18.434Z,4.03
2017-05-23T20:54:47.374Z,4.47
2017-05-23T20:57:16.299Z,3.03
2017-05-23T20:59:45.256Z,3.05
2017-05-23T21:02:14.197Z,3.08
2017-05-23T21:04:43.127Z,3.68
2017-05-23T21:07:12.087Z,2.77
2017-05-23T21:09:41.029Z,2.75
2017-05-23T21:12:09.962Z,3.08
2017-05-23T21:14:38.917Z,3.63
2017-05-23T21:17:07.844Z,3.78
2017-05-23T21:19:36.798Z,3.15
2017-05-23T21:22:05.771Z,2.77
2017-05-23T21:24:34.708Z,3.03
2017-05-23T21:27:03.638Z,2.60
2017-05-23T21:29:32.587Z,2.50
2017-05-23T21:32:01.524Z,2.82
2017-05-23T21:34:30.467Z,3.22
2017-05-23T21:36:59.445Z,2.70
2017-05-23T21:39:28.376Z,2.77
2017-05-23T21:41:57.302Z,2.60
2017-05-23T21:44:26.247Z,2.47
2017-05-23T21:46:55.193Z,3.20
2017-05-23T21:49:24.138Z,5.57
2017-05-23T21:51:53.109Z,3.03
2017-05-23T21:54:22.031Z,2.77
2017-05-23T21:56:50.968Z,3.00
2017-05-23T21:59:19.947Z,4.13
2017-05-23T22:01:48.872Z,3.03
2017-05-23T22:04:17.793Z,3.27
2017-05-23T22:06:46.769Z,3.40
2017-05-23T22:09:15.695Z,3.62
2017-05-23T22:11:44.642Z,3.30
2017-05-23T22:14:13.606Z,3.72
2017-05-23T22:16:42.547Z,2.72
2017-05-23T22:19:11.466Z,3.25
2017-05-23T22:21:40.436Z,3.85
2017-05-23T22:24:09.380Z,3.75
2017-05-23T22:26:38.305Z,2.72
2017-05-23T22:29:07.259Z,4.20
2017-05-23T22:31:36.218Z,4.22
2017-05-23T22:34:05.153Z,3.07
2017-05-23T22:36:34.097Z,3.60
2017-05-23T22:39:03.036Z,5.73
2017-05-23T22:41:31.957Z,3.93
2017-05-23T22:44:00.932Z,3.30
2017-05-23T22:46:29.883Z,3.12
2017-05-23T22:48:58.805Z,4.45
2017-05-23T22:51:27.783Z,3.88
2017-05-23T22:53:56.726Z,3.27
2017-05-23T22:56:25.658Z,3.32
2017-05-23T22:58:54.651Z,3.70
2017-05-23T23:01:23.582Z,3.83
2017-05-23T23:03:52.530Z,4.32
2017-05-23T23:06:21.505Z,3.68
2017-05-23T23:08:50.436Z,4.18
2017-05-23T23:11:19.376Z,5.10
2017-05-23T23:13:48.326Z,3.97
2017-05-23T23:16:17.247Z,4.60
2017-05-23T23:18:46.193Z,4.20
2017-05-23T23:21:15.184Z,4.53
2017-05-23T23:23:44.130Z,4.08
2017-05-23T23:26:13.062Z,9.23
2017-05-23T23:28:42.016Z,3.92
2017-05-23T23:31:10.946Z,4.58
2017-05-23T23:33:39.870Z,6.22
2017-05-23T23:36:08.845Z,4.60
2017-05-23T23:38:37.792Z,5.17
2017-05-23T23:41:06.717Z,3.50
2017-05-23T23:43:35.693Z,4.78
2017-05-23T23:46:04.623Z,5.03
2017-05-23T23:48:33.562Z,4.95
2017-05-23T23:51:02.640Z,4.98
2017-05-23T23:53:31.582Z,4.70
2017-05-23T23:56:00.506Z,4.07
2017-05-23T23:58:29.482Z,4.35
